createdAt,value
2019-04-06T00:01:33.963Z,79.60
2019-04-06T00:04:00.048Z,79.60
2019-04-06T00:06:26.365Z,79.70
2019-04-06T00:08:52.435Z,79.60
2019-04-06T00:11:18.647Z,79.40
2019-04-06T00:13:44.836Z,79.50
2019-04-06T00:16:11.041Z,79.50
2019-04-06T00:18:37.154Z,79.70
2019-04-06T00:21:03.315Z,80.10
2019-04-06T00:23:29.499Z,80.20
2019-04-06T00:25:55.619Z,80.30
2019-04-06T00:28:21.755Z,80.50
2019-04-06T00:31:08.461Z,80.80
2019-04-06T00:33:34.566Z,80.90
2019-04-06T00:36:00.739Z,80.70
2019-04-06T00:38:26.970Z,81.00
2019-04-06T00:40:53.082Z,81.20
2019-04-06T00:43:19.267Z,81.10
2019-04-06T00:45:45.449Z,82.80
2019-04-06T00:48:11.620Z,82.30
2019-04-06T00:50:37.780Z,83.20
2019-04-06T00:53:03.966Z,83.20
2019-04-06T00:55:30.038Z,84.60
2019-04-06T00:57:56.159Z,84.20
2019-04-06T01:00:22.456Z,84.60
2019-04-06T01:02:48.557Z,85.40
2019-04-06T01:05:14.798Z,85.00
2019-04-06T01:07:40.879Z,85.10
2019-04-06T01:10:07.079Z,84.60
2019-04-06T01:12:33.264Z,85.60
2019-04-06T01:14:59.435Z,85.20
2019-04-06T01:17:26.000Z,85.10
2019-04-06T01:19:52.248Z,85.00
2019-04-06T01:22:18.337Z,84.90
2019-04-06T01:24:44.492Z,84.60
2019-04-06T01:27:11.530Z,84.60
2019-04-06T01:29:37.614Z,84.50
2019-04-06T01:32:03.862Z,84.20
2019-04-06T01:34:30.029Z,84.20
2019-04-06T01:36:56.124Z,84.80
2019-04-06T01:39:22.302Z,85.20
2019-04-06T01:41:48.492Z,85.90
2019-04-06T01:44:14.614Z,85.90
2019-04-06T01:46:40.751Z,87.20
2019-04-06T01:49:06.871Z,87.70
2019-04-06T01:51:33.069Z,87.40
2019-04-06T01:53:59.141Z,88.50
2019-04-06T01:56:25.237Z,88.70
2019-04-06T01:58:51.305Z,88.90
2019-04-06T02:01:19.355Z,88.10
2019-04-06T02:03:45.502Z,88.20
2019-04-06T02:06:11.621Z,88.50
2019-04-06T02:08:37.862Z,89.30
2019-04-06T02:11:04.069Z,89.40
2019-04-06T02:13:30.247Z,89.80
2019-04-06T02:15:56.368Z,90.00
2019-04-06T02:18:22.461Z,90.00
2019-04-06T02:20:48.536Z,90.10
2019-04-06T02:23:14.796Z,90.10
2019-04-06T02:25:40.876Z,90.40
2019-04-06T02:28:06.974Z,90.60
2019-04-06T02:30:34.958Z,90.50
2019-04-06T02:33:14.092Z,90.40
2019-04-06T02:35:44.258Z,90.50
2019-04-06T02:38:15.158Z,90.40
2019-04-06T02:41:01.307Z,90.50
2019-04-06T02:43:29.893Z,90.50
2019-04-06T02:45:56.061Z,90.90
2019-04-06T02:48:22.129Z,90.80
2019-04-06T02:50:48.217Z,90.70
2019-04-06T02:53:14.472Z,90.80
2019-04-06T02:55:40.582Z,91.50
2019-04-06T02:58:06.672Z,90.80
2019-04-06T03:00:33.096Z,91.10
2019-04-06T03:02:59.573Z,91.30
2019-04-06T03:05:25.669Z,91.30
2019-04-06T03:07:51.909Z,91.20
2019-04-06T03:10:18.011Z,91.50
2019-04-06T03:12:44.181Z,91.90
2019-04-06T03:15:10.657Z,91.50
2019-04-06T03:17:36.945Z,91.60
2019-04-06T03:20:05.652Z,91.50
2019-04-06T03:22:31.979Z,91.40
2019-04-06T03:24:58.193Z,91.50
2019-04-06T03:27:24.448Z,91.60
2019-04-06T03:29:57.903Z,91.40
2019-04-06T03:32:18.576Z,91.50
2019-04-06T03:34:44.677Z,91.40
2019-04-06T03:37:10.893Z,91.50
2019-04-06T03:39:37.078Z,91.60
2019-04-06T03:42:03.274Z,91.50
2019-04-06T03:44:29.383Z,91.40
2019-04-06T03:46:55.587Z,91.40
2019-04-06T03:49:21.779Z,91.40
2019-04-06T03:51:47.856Z,91.50
2019-04-06T03:54:13.971Z,91.50
2019-04-06T03:56:40.068Z,91.60
2019-04-06T03:59:06.184Z,91.40
2019-04-06T04:01:32.486Z,91.40
2019-04-06T04:03:58.659Z,91.60
2019-04-06T04:06:25.037Z,91.40
2019-04-06T04:08:51.244Z,91.60
2019-04-06T04:11:17.426Z,91.50
2019-04-06T04:13:43.595Z,91.60
2019-04-06T04:16:09.846Z,91.60
2019-04-06T04:18:35.968Z,91.60
2019-04-06T04:21:02.384Z,91.50
2019-04-06T04:23:28.642Z,91.80
2019-04-06T04:25:54.765Z,91.70
2019-04-06T04:28:20.898Z,91.60
2019-04-06T04:30:47.081Z,91.70
2019-04-06T04:33:13.237Z,91.70
2019-04-06T04:35:39.306Z,91.60
2019-04-06T04:38:05.388Z,91.60
2019-04-06T04:40:31.583Z,91.70
2019-04-06T04:42:57.880Z,91.70
2019-04-06T04:45:24.069Z,91.80
2019-04-06T04:47:50.535Z,91.80
2019-04-06T04:50:16.864Z,91.90
2019-04-06T04:52:43.043Z,92.20
2019-04-06T04:55:09.248Z,91.90
2019-04-06T04:57:41.186Z,91.90
2019-04-06T05:00:04.626Z,91.90
2019-04-06T05:02:30.787Z,91.90
2019-04-06T05:04:56.868Z,92.00
2019-04-06T05:07:22.970Z,92.00
2019-04-06T05:09:49.083Z,92.10
2019-04-06T05:12:15.212Z,92.20
2019-04-06T05:15:02.337Z,92.30
2019-04-06T05:17:29.416Z,92.20
2019-04-06T05:19:56.036Z,92.30
2019-04-06T05:22:22.240Z,92.30
2019-04-06T05:24:48.543Z,92.30
2019-04-06T05:27:14.897Z,92.40
2019-04-06T05:29:41.146Z,92.40
2019-04-06T05:32:07.357Z,92.40
2019-04-06T05:34:33.437Z,92.40
2019-04-06T05:36:59.528Z,92.90
2019-04-06T05:39:25.672Z,92.70
2019-04-06T05:41:51.916Z,92.60
2019-04-06T05:44:18.008Z,92.50
2019-04-06T05:46:44.240Z,92.40
2019-04-06T05:49:10.364Z,92.40
2019-04-06T05:51:36.441Z,92.40
2019-04-06T05:54:02.739Z,92.60
2019-04-06T05:56:28.866Z,91.80
2019-04-06T05:58:55.153Z,91.90
2019-04-06T06:01:21.278Z,91.90
2019-04-06T06:03:47.394Z,92.00
2019-04-06T06:06:13.501Z,92.20
2019-04-06T06:08:39.682Z,92.50
2019-04-06T06:11:05.768Z,92.50
2019-04-06T06:13:31.836Z,92.70
2019-04-06T06:15:57.919Z,92.70
2019-04-06T06:18:27.378Z,92.50
2019-04-06T06:20:52.337Z,92.40
2019-04-06T06:23:18.886Z,92.60
2019-04-06T06:25:45.245Z,92.50
2019-04-06T06:28:15.017Z,92.50
2019-04-06T06:30:39.344Z,92.40
2019-04-06T06:33:05.707Z,92.40
2019-04-06T06:35:32.037Z,92.30
2019-04-06T06:37:58.340Z,92.50
2019-04-06T06:40:24.525Z,92.50
2019-04-06T06:42:50.616Z,92.40
2019-04-06T06:45:16.798Z,92.30
2019-04-06T06:47:43.021Z,92.10
2019-04-06T06:50:09.368Z,92.20
2019-04-06T06:52:35.455Z,92.10
2019-04-06T06:55:01.913Z,92.00
2019-04-06T06:57:28.073Z,91.90
2019-04-06T06:59:54.190Z,91.80
2019-04-06T07:02:20.615Z,91.80
2019-04-06T07:04:46.762Z,91.90
2019-04-06T07:07:13.066Z,91.80
2019-04-06T07:09:39.297Z,91.70
2019-04-06T07:12:05.447Z,91.70
2019-04-06T07:14:31.624Z,91.80
2019-04-06T07:16:57.869Z,91.70
2019-04-06T07:19:23.968Z,91.70
2019-04-06T07:21:50.476Z,91.50
2019-04-06T07:24:16.628Z,91.40
2019-04-06T07:26:42.712Z,91.40
2019-04-06T07:29:09.653Z,91.40
2019-04-06T07:31:35.740Z,91.30
2019-04-06T07:34:02.029Z,91.10
2019-04-06T07:36:28.694Z,91.00
2019-04-06T07:38:54.991Z,91.10
2019-04-06T07:41:21.185Z,91.10
2019-04-06T07:43:47.393Z,90.90
2019-04-06T07:46:13.567Z,90.90
2019-04-06T07:48:39.669Z,91.10
2019-04-06T07:51:05.858Z,91.10
2019-04-06T07:53:31.918Z,91.20
2019-04-06T07:55:58.222Z,91.30
2019-04-06T07:58:24.393Z,90.90
2019-04-06T08:00:50.493Z,91.10
2019-04-06T08:03:16.589Z,91.20
2019-04-06T08:05:42.780Z,91.60
2019-04-06T08:08:08.997Z,91.40
2019-04-06T08:10:35.155Z,91.50
2019-04-06T08:13:01.246Z,91.50
2019-04-06T08:15:27.437Z,91.40
2019-04-06T08:17:53.514Z,91.60
2019-04-06T08:20:19.592Z,91.60
2019-04-06T08:22:45.677Z,91.30
2019-04-06T08:25:11.960Z,90.90
2019-04-06T08:27:38.047Z,91.20
2019-04-06T08:30:08.525Z,91.10
2019-04-06T08:32:35.333Z,91.30
2019-04-06T08:35:01.842Z,91.60
2019-04-06T08:37:27.992Z,91.20
2019-04-06T08:39:54.160Z,91.50
2019-04-06T08:42:20.251Z,91.00
2019-04-06T08:44:46.345Z,91.20
2019-04-06T08:47:12.504Z,91.20
2019-04-06T08:49:38.595Z,90.60
2019-04-06T08:52:04.674Z,90.60
2019-04-06T08:54:30.730Z,90.70
2019-04-06T08:56:56.803Z,90.70
2019-04-06T08:59:22.919Z,90.80
2019-04-06T09:01:49.011Z,90.30
2019-04-06T09:04:15.464Z,89.80
2019-04-06T09:06:41.785Z,90.00
2019-04-06T09:09:07.987Z,90.00
2019-04-06T09:11:34.238Z,89.50
2019-04-06T09:14:00.369Z,89.00
2019-04-06T09:16:26.709Z,90.10
2019-04-06T09:18:52.841Z,89.20
2019-04-06T09:21:19.004Z,87.70
2019-04-06T09:23:45.072Z,88.70
2019-04-06T09:26:11.163Z,87.80
2019-04-06T09:28:37.634Z,88.90
2019-04-06T09:31:03.841Z,89.00
2019-04-06T09:33:29.912Z,88.90
2019-04-06T09:35:56.100Z,87.50
2019-04-06T09:38:22.295Z,86.20
2019-04-06T09:40:48.581Z,87.00
2019-04-06T09:43:14.779Z,86.70
2019-04-06T09:45:42.739Z,85.50
2019-04-06T09:48:13.866Z,86.80
2019-04-06T09:50:42.149Z,87.00
2019-04-06T09:53:28.181Z,85.90
2019-04-06T09:56:07.909Z,86.80
2019-04-06T09:58:52.479Z,86.20
2019-04-06T10:01:23.935Z,85.80
2019-04-06T10:04:04.283Z,85.00
2019-04-06T10:06:38.743Z,84.70
2019-04-06T10:09:11.357Z,85.20
2019-04-06T10:11:42.384Z,83.00
2019-04-06T10:14:25.670Z,83.00
2019-04-06T10:17:05.713Z,82.00
2019-04-06T10:19:36.596Z,82.10
2019-04-06T10:22:17.243Z,81.00
2019-04-06T10:25:00.133Z,79.80
2019-04-06T10:27:43.431Z,80.50
2019-04-06T10:30:12.419Z,80.50
2019-04-06T10:32:40.733Z,79.20
2019-04-06T10:35:14.951Z,79.70
2019-04-06T10:37:54.958Z,78.90
2019-04-06T10:40:32.307Z,79.60
2019-04-06T10:43:00.574Z,76.30
2019-04-06T10:45:40.774Z,76.80
2019-04-06T10:48:24.346Z,76.40
2019-04-06T10:51:04.072Z,77.00
2019-04-06T10:53:35.301Z,76.50
2019-04-06T10:56:20.171Z,75.00
2019-04-06T10:58:51.031Z,75.30
2019-04-06T11:01:18.995Z,77.00
2019-04-06T11:03:54.501Z,75.40
2019-04-06T11:06:37.664Z,77.20
2019-04-06T11:09:11.133Z,74.90
2019-04-06T11:11:45.114Z,75.60
2019-04-06T11:14:19.057Z,72.10
2019-04-06T11:16:53.115Z,74.00
2019-04-06T11:19:30.074Z,74.70
2019-04-06T11:22:13.171Z,74.40
2019-04-06T11:24:47.490Z,70.20
2019-04-06T11:27:18.372Z,67.00
2019-04-06T11:29:46.579Z,70.40
2019-04-06T11:32:23.685Z,69.40
2019-04-06T11:34:57.720Z,69.10
2019-04-06T11:37:42.204Z,68.20
2019-04-06T11:40:13.713Z,68.90
2019-04-06T11:42:50.556Z,70.80
2019-04-06T11:45:33.627Z,69.60
2019-04-06T11:48:07.409Z,68.50
2019-04-06T11:50:38.251Z,70.00
2019-04-06T11:53:09.189Z,70.50
2019-04-06T11:55:37.270Z,71.20
2019-04-06T11:58:11.383Z,68.50
2019-04-06T12:00:51.403Z,69.10
2019-04-06T12:03:31.514Z,65.60
2019-04-06T12:06:02.356Z,64.90
2019-04-06T12:08:39.319Z,67.20
2019-04-06T12:11:22.363Z,66.00
2019-04-06T12:14:07.012Z,66.70
2019-04-06T12:16:43.816Z,64.50
2019-04-06T12:19:11.960Z,64.60
2019-04-06T12:21:40.019Z,65.60
2019-04-06T12:24:13.822Z,63.40
2019-04-06T12:26:41.777Z,61.90
2019-04-06T12:29:18.741Z,62.80
2019-04-06T12:32:04.784Z,62.80
2019-04-06T12:34:41.839Z,64.70
2019-04-06T12:37:12.717Z,64.30
2019-04-06T12:39:53.441Z,64.00
2019-04-06T12:42:26.149Z,63.10
2019-04-06T12:45:10.860Z,64.40
2019-04-06T12:47:38.900Z,63.90
2019-04-06T12:50:23.987Z,62.60
2019-04-06T12:52:57.965Z,60.00
2019-04-06T12:55:25.985Z,61.60
2019-04-06T12:58:11.151Z,60.20
2019-04-06T13:00:56.136Z,60.90
2019-04-06T13:03:30.117Z,59.90
2019-04-06T13:06:16.328Z,59.80
2019-04-06T13:08:47.263Z,60.30
2019-04-06T13:11:31.910Z,58.80
2019-04-06T13:14:03.152Z,59.00
2019-04-06T13:16:34.125Z,59.00
2019-04-06T13:19:08.419Z,58.90
2019-04-06T13:24:37.548Z,62.30
2019-04-06T13:29:37.094Z,81.70
2019-04-06T13:32:08.213Z,58.30
2019-04-06T13:34:39.145Z,58.00
2019-04-06T13:39:38.956Z,71.30
2019-04-06T13:49:52.981Z,54.00
2019-04-06T13:52:27.547Z,55.90
2019-04-06T13:55:08.004Z,48.80
2019-04-06T14:46:19.184Z,39.70
2019-04-06T14:48:50.014Z,38.20
2019-04-06T14:51:23.785Z,36.80
2019-04-06T14:54:06.908Z,36.60
2019-04-06T14:56:35.052Z,38.10
2019-04-06T14:59:06.124Z,35.90
2019-04-06T15:01:51.072Z,35.60
2019-04-06T15:04:25.401Z,32.60
2019-04-06T15:07:09.450Z,33.40
2019-04-06T15:09:38.219Z,34.10
2019-04-06T15:12:06.345Z,34.40
2019-04-06T15:14:40.396Z,33.90
2019-04-06T15:17:11.750Z,33.50
2019-04-06T15:19:57.019Z,32.80
2019-04-06T15:22:31.359Z,33.40
2019-04-06T15:25:02.385Z,31.40
2019-04-06T15:27:47.209Z,29.80
2019-04-06T15:30:16.846Z,31.30
2019-04-06T15:32:57.201Z,29.80
2019-04-06T15:35:40.374Z,28.40
2019-04-06T15:38:14.251Z,30.00
2019-04-06T15:40:48.193Z,30.30
2019-04-06T15:43:25.419Z,29.80
2019-04-06T15:45:56.381Z,30.10
2019-04-06T15:48:37.021Z,28.10
2019-04-06T15:51:05.671Z,28.70
2019-04-06T15:53:33.654Z,29.60
2019-04-06T15:56:13.777Z,29.50
2019-04-06T15:58:42.217Z,29.00
2019-04-06T16:01:13.112Z,28.90
2019-04-06T16:03:43.908Z,28.10
2019-04-06T16:06:30.456Z,28.70
2019-04-06T16:08:58.520Z,28.50
2019-04-06T16:11:44.651Z,28.60
2019-04-06T16:14:12.709Z,28.10
2019-04-06T16:16:49.933Z,28.50
2019-04-06T16:19:30.360Z,28.40
2019-04-06T16:22:01.153Z,28.10
2019-04-06T16:24:34.954Z,27.50
2019-04-06T16:27:21.506Z,27.20
2019-04-06T16:29:58.543Z,26.90
2019-04-06T16:32:35.554Z,25.90
2019-04-06T16:35:06.608Z,26.60
2019-04-06T16:37:51.464Z,27.00
2019-04-06T16:40:25.779Z,27.20
2019-04-06T16:42:53.977Z,27.20
2019-04-06T16:45:37.816Z,28.10
2019-04-06T16:48:12.276Z,28.10
2019-04-06T16:53:43.102Z,29.10
2019-04-06T16:56:14.056Z,29.40
2019-04-06T16:58:42.304Z,29.70
2019-04-06T17:01:10.545Z,29.90
2019-04-06T17:03:38.555Z,30.00
2019-04-06T17:06:19.411Z,30.10
2019-04-06T17:08:47.480Z,30.30
2019-04-06T17:11:21.887Z,30.70
2019-04-06T17:14:00.124Z,30.90
2019-04-06T17:16:31.116Z,31.10
2019-04-06T17:18:59.150Z,31.30
2019-04-06T17:21:27.134Z,31.10
2019-04-06T17:24:12.188Z,31.40
2019-04-06T17:26:40.217Z,31.20
2019-04-06T17:29:13.845Z,31.30
2019-04-06T17:31:44.401Z,31.40
2019-04-06T17:34:24.836Z,31.30
2019-04-06T17:39:37.829Z,31.40
2019-04-06T17:42:18.099Z,32.50
2019-04-06T17:47:19.509Z,32.70
2019-04-06T17:50:00.050Z,33.20
2019-04-06T17:52:34.229Z,33.50
2019-04-06T18:03:10.338Z,34.20
2019-04-06T18:05:56.966Z,34.90
2019-04-06T18:08:43.902Z,35.10
2019-04-06T18:11:22.607Z,35.60
2019-04-06T18:13:50.048Z,35.40
2019-04-06T18:16:21.390Z,36.00
2019-04-06T18:18:48.213Z,36.20
2019-04-06T18:21:14.296Z,36.80
2019-04-06T18:23:40.388Z,36.40
2019-04-06T18:26:06.634Z,37.50
2019-04-06T18:28:33.042Z,37.30
2019-04-06T18:31:04.034Z,37.80
2019-04-06T18:33:30.249Z,38.00
2019-04-06T18:35:57.341Z,38.00
2019-04-06T18:38:25.528Z,39.10
2019-04-06T18:40:51.609Z,39.10
2019-04-06T18:43:17.825Z,39.50
2019-04-06T18:45:44.053Z,39.90
2019-04-06T18:48:10.184Z,39.20
2019-04-06T18:50:38.870Z,40.50
2019-04-06T18:53:04.470Z,39.70
2019-04-06T18:55:31.279Z,39.80
2019-04-06T18:58:08.701Z,40.30
2019-04-06T19:00:26.362Z,40.30
2019-04-06T19:02:52.711Z,41.30
2019-04-06T19:05:19.368Z,40.70
2019-04-06T19:07:45.721Z,41.20
2019-04-06T19:10:19.172Z,42.00
2019-04-06T19:12:45.251Z,42.30
2019-04-06T19:15:11.828Z,42.40
2019-04-06T19:17:38.842Z,42.00
2019-04-06T19:20:07.128Z,42.20
2019-04-06T19:22:33.270Z,42.00
2019-04-06T19:24:59.336Z,42.90
2019-04-06T19:27:25.438Z,42.30
2019-04-06T19:29:51.920Z,42.50
2019-04-06T19:32:18.252Z,42.60
2019-04-06T19:34:44.373Z,42.90
2019-04-06T19:37:11.176Z,42.80
2019-04-06T19:39:37.507Z,42.10
2019-04-06T19:42:03.870Z,43.10
2019-04-06T19:44:30.197Z,43.10
2019-04-06T19:46:56.529Z,43.50
2019-04-06T19:49:23.088Z,42.80
2019-04-06T19:51:49.522Z,43.10
2019-04-06T19:54:15.748Z,43.40
2019-04-06T19:56:41.855Z,43.70
2019-04-06T19:59:08.735Z,43.90
2019-04-06T20:01:34.970Z,43.80
2019-04-06T20:04:01.049Z,44.30
2019-04-06T20:06:27.148Z,44.90
2019-04-06T20:08:53.225Z,44.30
2019-04-06T20:11:19.406Z,44.30
2019-04-06T20:13:45.670Z,43.90
2019-04-06T20:16:12.119Z,44.40
2019-04-06T20:18:38.941Z,44.00
2019-04-06T20:21:05.285Z,43.90
2019-04-06T20:23:31.491Z,44.10
2019-04-06T20:25:57.752Z,43.90
2019-04-06T20:28:24.363Z,44.50
2019-04-06T20:30:50.813Z,44.50
2019-04-06T20:33:19.208Z,43.70
2019-04-06T20:35:44.939Z,44.00
2019-04-06T20:38:11.511Z,44.10
2019-04-06T20:40:37.928Z,45.00
2019-04-06T20:43:04.116Z,45.00
2019-04-06T20:45:30.185Z,44.60
2019-04-06T20:47:56.284Z,45.80
2019-04-06T20:50:22.456Z,46.40
2019-04-06T20:52:48.550Z,46.00
2019-04-06T20:55:14.612Z,45.90
2019-04-06T20:57:41.084Z,46.70
2019-04-06T21:00:08.690Z,46.60
2019-04-06T21:02:35.046Z,45.80
2019-04-06T21:05:02.094Z,46.80
2019-04-06T21:07:28.615Z,46.90
2019-04-06T21:09:55.071Z,47.70
2019-04-06T21:12:21.193Z,47.00
2019-04-06T21:14:47.283Z,47.50
2019-04-06T21:17:13.361Z,47.40
2019-04-06T21:19:39.485Z,47.80
2019-04-06T21:22:05.765Z,47.90
2019-04-06T21:24:32.860Z,48.40
2019-04-06T21:26:59.697Z,48.80
2019-04-06T21:29:25.925Z,48.30
2019-04-06T21:31:52.028Z,48.10
2019-04-06T21:34:18.287Z,48.50
2019-04-06T21:36:44.975Z,48.20
2019-04-06T21:39:11.070Z,48.40
2019-04-06T21:41:37.437Z,48.00
2019-04-06T21:44:03.636Z,48.20
2019-04-06T21:46:29.828Z,48.30
2019-04-06T21:48:55.905Z,48.60
2019-04-06T21:51:22.143Z,48.30
2019-04-06T21:53:48.319Z,48.20
2019-04-06T21:56:14.538Z,48.10
2019-04-06T21:58:40.635Z,48.20
2019-04-06T22:01:07.447Z,47.80
2019-04-06T22:03:33.821Z,48.00
2019-04-06T22:06:01.289Z,48.20
2019-04-06T22:08:27.791Z,47.40
2019-04-06T22:10:54.028Z,47.80
2019-04-06T22:13:20.683Z,47.70
2019-04-06T22:15:47.344Z,48.30
2019-04-06T22:18:13.595Z,47.80
2019-04-06T22:20:39.923Z,47.60
2019-04-06T22:23:06.621Z,47.80
2019-04-06T22:25:33.813Z,48.30
2019-04-06T22:28:00.732Z,47.60
2019-04-06T22:30:27.431Z,47.70
2019-04-06T22:32:53.736Z,47.80
2019-04-06T22:35:20.433Z,47.60
2019-04-06T22:37:47.449Z,48.00
2019-04-06T22:40:14.244Z,48.00
2019-04-06T22:42:41.091Z,47.80
2019-04-06T22:45:09.707Z,48.40
2019-04-06T22:47:35.951Z,48.20
2019-04-06T22:50:03.961Z,47.80
2019-04-06T22:52:30.690Z,48.20
2019-04-06T22:54:56.974Z,48.20
2019-04-06T22:57:23.170Z,48.30
2019-04-06T22:59:49.473Z,48.50
2019-04-06T23:02:15.727Z,48.60
2019-04-06T23:04:48.576Z,48.70
2019-04-06T23:07:13.716Z,48.80
2019-04-06T23:09:39.981Z,48.80
2019-04-06T23:12:06.447Z,49.10
2019-04-06T23:14:32.908Z,49.10
2019-04-06T23:16:59.777Z,49.30
2019-04-06T23:19:26.119Z,49.20
2019-04-06T23:21:52.391Z,49.40
2019-04-06T23:24:18.630Z,49.50
2019-04-06T23:26:45.484Z,50.40
2019-04-06T23:29:11.641Z,50.50
2019-04-06T23:31:38.366Z,50.80
2019-04-06T23:34:04.520Z,50.80
2019-04-06T23:36:30.742Z,50.90
2019-04-06T23:38:57.480Z,51.10
2019-04-06T23:41:23.848Z,50.90
2019-04-06T23:43:50.795Z,51.10
2019-04-06T23:46:17.774Z,51.20
2019-04-06T23:48:44.129Z,51.30
2019-04-06T23:51:10.691Z,51.50
2019-04-06T23:53:37.315Z,51.40
2019-04-06T23:56:03.472Z,52.10
2019-04-06T23:58:29.732Z,51.70
